Time;durP1;ratioP1;P1;durP2;ratioP2;P2;SDS_P1;SDS_P2;PMS_P1;PMS_P2;Temp;Humidity;BMP_temperature;BMP_pressure;BME280_temperature;BME280_humidity;BME280_pressure;Samples;Min_cycle;Max_cycle;Signal;HPM_P1;HPM_P2
2020/12/16 00:00:55;;;;;;;23.93;21.53;;;8.40;99.90;;;;;;4993068;28;20537;-24
2020/12/16 00:03:21;;;;;;;27.93;23.70;;;8.40;99.90;;;;;;4993961;28;20766;-26
2020/12/16 00:05:48;;;;;;;23.57;20.20;;;8.40;99.90;;;;;;4993004;28;20440;-25
2020/12/16 00:08:16;;;;;;;23.40;20.90;;;8.40;99.90;;;;;;4991921;28;20558;-25
2020/12/16 00:10:42;;;;;;;25.43;22.40;;;8.30;99.90;;;;;;4991178;28;20441;-24
2020/12/16 00:13:10;;;;;;;36.07;30.40;;;8.30;99.90;;;;;;4992328;28;20559;-25
2020/12/16 00:15:37;;;;;;;26.10;22.70;;;8.20;99.90;;;;;;4991405;28;20503;-25
2020/12/16 00:18:04;;;;;;;24.10;20.07;;;8.20;99.90;;;;;;4991612;28;20891;-25
2020/12/16 00:20:31;;;;;;;22.90;19.60;;;8.10;99.90;;;;;;4991258;28;20432;-25
2020/12/16 00:22:57;;;;;;;23.60;21.10;;;8.10;99.90;;;;;;4991482;28;20471;-24
2020/12/16 00:25:24;;;;;;;23.50;20.67;;;8.00;99.90;;;;;;4991150;28;20444;-25
2020/12/16 00:27:51;;;;;;;22.70;20.13;;;8.00;99.90;;;;;;4991843;28;20428;-24
2020/12/16 00:30:18;;;;;;;21.20;18.60;;;7.90;99.90;;;;;;4990445;28;20497;-25
2020/12/16 00:32:45;;;;;;;20.50;18.47;;;7.90;99.90;;;;;;4990495;28;20540;-24
2020/12/16 00:35:12;;;;;;;25.53;21.00;;;7.90;99.90;;;;;;4989735;28;20444;-25
2020/12/16 00:37:40;;;;;;;21.73;19.53;;;7.90;99.90;;;;;;4991209;28;20491;-25
2020/12/16 00:40:08;;;;;;;21.07;18.73;;;7.90;99.90;;;;;;4990852;28;20705;-25
2020/12/16 00:42:35;;;;;;;21.50;19.20;;;7.90;99.90;;;;;;4989498;28;20629;-25
2020/12/16 00:45:03;;;;;;;20.60;18.50;;;7.90;99.90;;;;;;4990100;28;20601;-25
2020/12/16 00:47:34;;;;;;;22.20;19.90;;;7.90;99.90;;;;;;4988664;28;20887;-25
2020/12/16 00:50:00;;;;;;;21.63;19.33;;;7.90;99.90;;;;;;4991088;28;20448;-25
2020/12/16 00:52:27;;;;;;;21.33;18.20;;;8.00;99.90;;;;;;4990772;28;20496;-25
2020/12/16 00:54:54;;;;;;;20.17;18.07;;;8.00;99.90;;;;;;4989997;28;20444;-25
2020/12/16 00:57:22;;;;;;;21.60;18.80;;;8.00;99.90;;;;;;4989826;28;20555;-25
2020/12/16 00:59:48;;;;;;;20.20;18.00;;;8.00;99.90;;;;;;4990123;28;20436;-25
2020/12/16 01:02:15;;;;;;;19.13;17.17;;;7.90;99.90;;;;;;4989324;28;20519;-25
2020/12/16 01:04:43;;;;;;;21.87;16.07;;;7.90;99.90;;;;;;4988542;28;20440;-25
2020/12/16 01:07:10;;;;;;;18.50;16.60;;;7.90;99.90;;;;;;4988434;28;20483;-25
2020/12/16 01:09:37;;;;;;;19.60;15.97;;;7.90;99.90;;;;;;4989855;28;20444;-25
2020/12/16 01:12:04;;;;;;;17.63;15.83;;;7.90;99.90;;;;;;4989495;28;20448;-25
2020/12/16 01:14:33;;;;;;;22.73;17.27;;;7.90;99.90;;;;;;4988510;28;20432;-25
2020/12/16 01:17:00;;;;;;;16.33;14.83;;;7.90;99.90;;;;;;4989720;28;20483;-25
2020/12/16 01:19:32;;;;;;;18.37;15.47;;;7.90;99.90;;;;;;4987825;28;20550;-25
2020/12/16 01:21:59;;;;;;;21.47;17.37;;;7.90;99.90;;;;;;4989332;28;20644;-25
2020/12/16 01:24:27;;;;;;;17.57;15.87;;;8.00;99.90;;;;;;4989037;28;20447;-25
2020/12/16 01:26:59;;;;;;;15.87;14.30;;;8.10;99.90;;;;;;4988454;28;20538;-25
2020/12/16 01:29:27;;;;;;;15.37;13.90;;;8.20;99.90;;;;;;4987400;28;20468;-24
2020/12/16 01:31:54;;;;;;;15.20;13.70;;;8.20;99.90;;;;;;4989213;28;20448;-25
2020/12/16 01:34:29;;;;;;;15.17;13.73;;;8.30;99.90;;;;;;4988517;28;20539;-25
2020/12/16 01:37:05;;;;;;;15.50;13.40;;;8.30;99.90;;;;;;4990163;28;20604;-25
2020/12/16 01:39:37;;;;;;;13.37;12.10;;;8.40;99.90;;;;;;4989311;28;20467;-25
2020/12/16 01:42:05;;;;;;;14.33;12.93;;;8.40;99.90;;;;;;4988631;28;20846;-25
2020/12/16 01:44:33;;;;;;;12.43;11.43;;;8.50;99.90;;;;;;4990992;28;20436;-25
2020/12/16 01:47:03;;;;;;;13.67;12.27;;;8.50;99.90;;;;;;4989280;28;20445;-25
2020/12/16 01:49:39;;;;;;;13.20;12.10;;;8.50;99.90;;;;;;4990512;28;20850;-25
2020/12/16 01:52:08;;;;;;;14.17;12.90;;;8.50;99.90;;;;;;4989999;28;20460;-25
2020/12/16 01:54:46;;;;;;;13.53;12.20;;;8.50;99.90;;;;;;4988355;28;20464;-25
2020/12/16 01:57:18;;;;;;;13.30;12.10;;;8.50;99.90;;;;;;4991821;28;20472;-25
2020/12/16 01:59:53;;;;;;;13.97;12.77;;;8.40;99.90;;;;;;4992738;28;20448;-25
2020/12/16 02:02:45;;;;;;;13.03;11.80;;;8.40;99.90;;;;;;4993498;28;20551;-25
2020/12/16 02:05:15;;;;;;;14.87;13.30;;;8.30;99.90;;;;;;4993493;28;20553;-25
2020/12/16 02:07:46;;;;;;;15.40;13.90;;;8.20;99.90;;;;;;4989135;28;20535;-25
2020/12/16 02:10:14;;;;;;;13.90;12.60;;;8.10;99.90;;;;;;4973183;28;20468;-25
2020/12/16 02:12:41;;;;;;;15.27;13.33;;;8.00;99.90;;;;;;4974246;28;20445;-25
2020/12/16 02:15:10;;;;;;;15.13;12.07;;;7.90;99.90;;;;;;4973911;28;20435;-25
2020/12/16 02:17:40;;;;;;;15.93;12.00;;;7.90;99.90;;;;;;4972541;28;20461;-25
2020/12/16 02:20:09;;;;;;;13.40;12.13;;;7.80;99.90;;;;;;4987951;28;21071;-25
2020/12/16 02:22:49;;;;;;;14.43;12.93;;;7.80;99.90;;;;;;4972811;28;20519;-24
2020/12/16 02:25:17;;;;;;;14.57;12.30;;;7.70;99.90;;;;;;4987909;28;20831;-25
2020/12/16 02:27:51;;;;;;;14.53;12.93;;;7.60;99.90;;;;;;4990074;28;20518;-25
2020/12/16 02:30:26;;;;;;;14.00;12.60;;;7.50;99.90;;;;;;4989436;28;20451;-25
2020/12/16 02:33:11;;;;;;;13.57;12.10;;;7.50;99.90;;;;;;4973098;28;20531;-25
2020/12/16 02:35:47;;;;;;;14.10;12.63;;;7.40;99.90;;;;;;4971923;28;20764;-25
2020/12/16 02:38:18;;;;;;;12.03;10.73;;;7.40;99.90;;;;;;4973391;28;20523;-25
2020/12/16 02:40:46;;;;;;;12.13;10.93;;;7.40;99.90;;;;;;4972499;28;20926;-25
2020/12/16 02:43:15;;;;;;;13.00;11.80;;;7.40;99.90;;;;;;4974594;28;20455;-25
2020/12/16 02:45:43;;;;;;;13.67;12.40;;;7.30;99.90;;;;;;4971870;28;20434;-25
2020/12/16 02:48:13;;;;;;;12.17;11.07;;;7.30;99.90;;;;;;4970274;28;20449;-25
2020/12/16 02:50:42;;;;;;;12.10;11.00;;;7.30;99.90;;;;;;4973977;28;20445;-25
2020/12/16 02:53:09;;;;;;;11.70;10.60;;;7.30;99.90;;;;;;4975493;28;20752;-25
2020/12/16 02:55:55;;;;;;;11.70;10.50;;;7.30;99.90;;;;;;4976211;28;20485;-25
2020/12/16 02:58:23;;;;;;;13.30;12.03;;;7.40;99.90;;;;;;4973366;28;21011;-25
2020/12/16 03:00:50;;;;;;;12.50;11.20;;;7.40;99.90;;;;;;4987703;28;20759;-25
2020/12/16 03:03:40;;;;;;;11.90;10.50;;;7.50;99.90;;;;;;4972887;28;20449;-25
2020/12/16 03:06:25;;;;;;;11.67;10.57;;;7.60;99.90;;;;;;4972765;28;20464;-25
2020/12/16 03:08:58;;;;;;;12.07;10.90;;;7.60;99.90;;;;;;4992948;28;20755;-25
2020/12/16 03:11:28;;;;;;;13.07;11.77;;;7.70;99.90;;;;;;4992079;28;20441;-25
2020/12/16 03:13:55;;;;;;;11.37;10.40;;;7.70;99.90;;;;;;4989351;28;20449;-25
2020/12/16 03:16:22;;;;;;;13.43;12.10;;;7.70;99.90;;;;;;4990421;28;20515;-25
2020/12/16 03:18:56;;;;;;;11.47;10.30;;;7.70;99.90;;;;;;4991322;28;20727;-25
2020/12/16 03:21:24;;;;;;;11.53;10.10;;;7.70;99.90;;;;;;4990396;28;20578;-25
2020/12/16 03:23:53;;;;;;;13.60;12.00;;;7.60;99.90;;;;;;4990263;28;20451;-25
2020/12/16 03:26:49;;;;;;;11.63;10.43;;;7.50;99.90;;;;;;4991606;28;20906;-25
2020/12/16 03:29:34;;;;;;;11.70;10.60;;;7.40;99.90;;;;;;4991405;28;20888;-25
2020/12/16 03:32:14;;;;;;;12.40;11.10;;;7.30;99.90;;;;;;4991157;28;20456;-25
2020/12/16 03:34:50;;;;;;;12.77;11.43;;;7.20;99.90;;;;;;4990125;28;20612;-24
2020/12/16 03:37:21;;;;;;;12.10;11.10;;;7.10;99.90;;;;;;4990597;28;20553;-24
2020/12/16 03:39:48;;;;;;;12.23;11.13;;;7.00;99.90;;;;;;4989698;28;20474;-25
2020/12/16 03:42:21;;;;;;;12.03;10.90;;;6.90;99.90;;;;;;4990198;28;20441;-25
2020/12/16 03:44:47;;;;;;;14.50;11.67;;;6.80;99.90;;;;;;4989484;28;20502;-24
2020/12/16 03:47:15;;;;;;;12.20;10.90;;;6.80;99.90;;;;;;4988825;28;20854;-24
2020/12/16 03:49:42;;;;;;;14.97;11.20;;;6.70;99.90;;;;;;4989642;28;20779;-24
2020/12/16 03:52:09;;;;;;;12.23;11.03;;;6.70;99.90;;;;;;4993388;28;20460;-25
2020/12/16 03:54:40;;;;;;;13.23;11.93;;;6.80;99.90;;;;;;4996338;28;20440;-24
2020/12/16 03:57:26;;;;;;;13.83;12.30;;;6.70;99.90;;;;;;4997145;28;20752;-24
2020/12/16 04:00:21;;;;;;;10.57;9.60;;;6.70;99.90;;;;;;4994999;28;20468;-24
2020/12/16 04:02:54;;;;;;;12.80;11.30;;;6.70;99.90;;;;;;4993805;28;20437;-24
2020/12/16 04:05:40;;;;;;;13.00;11.33;;;6.70;99.90;;;;;;4990984;28;20467;-24
2020/12/16 04:08:07;;;;;;;14.23;12.70;;;6.70;99.90;;;;;;4988139;28;20860;-24
2020/12/16 04:10:52;;;;;;;15.53;12.30;;;6.70;99.90;;;;;;4988267;28;20786;-25
2020/12/16 04:13:20;;;;;;;13.10;11.80;;;6.60;99.90;;;;;;4990630;28;20483;-24
2020/12/16 04:15:47;;;;;;;13.50;12.27;;;6.70;99.90;;;;;;4990317;28;20734;-24
2020/12/16 04:18:15;;;;;;;13.57;11.77;;;6.70;99.90;;;;;;4989508;28;20463;-25
2020/12/16 04:20:42;;;;;;;12.17;10.97;;;6.70;99.90;;;;;;4987759;28;20432;-24
2020/12/16 04:23:08;;;;;;;13.43;12.13;;;6.70;99.90;;;;;;4987778;28;20852;-24
2020/12/16 04:25:37;;;;;;;13.33;10.73;;;6.70;99.90;;;;;;4987665;28;20441;-25
2020/12/16 04:28:07;;;;;;;14.23;11.63;;;6.80;99.90;;;;;;4989957;28;20448;-24
2020/12/16 04:30:35;;;;;;;11.00;9.90;;;6.80;99.90;;;;;;4990036;28;20451;-24
2020/12/16 04:33:01;;;;;;;11.83;10.63;;;6.80;99.90;;;;;;4991739;28;20448;-25
2020/12/16 04:35:30;;;;;;;13.70;11.00;;;6.80;99.90;;;;;;4989307;28;20523;-24
2020/12/16 04:37:59;;;;;;;12.67;11.40;;;6.90;99.90;;;;;;4988643;28;20502;-24
2020/12/16 04:40:26;;;;;;;13.07;11.83;;;6.90;99.90;;;;;;4988912;28;20656;-24
2020/12/16 04:43:01;;;;;;;14.53;12.90;;;6.90;99.90;;;;;;4988645;28;20767;-24
2020/12/16 04:45:31;;;;;;;26.57;20.20;;;6.90;99.90;;;;;;4989458;28;20475;-24
2020/12/16 04:48:00;;;;;;;22.90;18.33;;;6.90;99.90;;;;;;4987241;28;20444;-24
2020/12/16 04:50:27;;;;;;;30.00;22.77;;;6.90;99.90;;;;;;4988100;28;20452;-25
2020/12/16 04:53:01;;;;;;;22.20;17.83;;;6.90;99.90;;;;;;4985136;28;20460;-24
2020/12/16 04:55:42;;;;;;;16.67;14.40;;;6.90;99.90;;;;;;4985506;28;20769;-24
2020/12/16 04:58:23;;;;;;;29.97;20.43;;;7.00;99.90;;;;;;4985929;28;20782;-25
2020/12/16 05:00:49;;;;;;;16.43;14.73;;;7.00;99.90;;;;;;4986475;28;20433;-25
2020/12/16 05:03:23;;;;;;;17.13;14.70;;;7.00;99.90;;;;;;4988154;28;20819;-24
2020/12/16 05:06:09;;;;;;;17.33;15.27;;;7.00;99.90;;;;;;4989447;28;20468;-25
2020/12/16 05:08:35;;;;;;;16.30;14.80;;;7.00;99.90;;;;;;4991126;28;20483;-24
2020/12/16 05:11:02;;;;;;;18.57;16.60;;;7.00;99.90;;;;;;4991342;28;20775;-24
2020/12/16 05:13:29;;;;;;;14.97;13.53;;;7.10;99.90;;;;;;4993741;28;20743;-24
2020/12/16 05:16:01;;;;;;;16.40;13.00;;;7.10;99.90;;;;;;4987303;28;20448;-24
2020/12/16 05:18:28;;;;;;;16.10;14.57;;;7.10;99.90;;;;;;4988413;28;20675;-25
2020/12/16 05:20:57;;;;;;;19.80;14.60;;;7.20;99.90;;;;;;4986262;28;20479;-25
2020/12/16 05:23:25;;;;;;;21.93;19.60;;;7.20;99.90;;;;;;4984317;28;20744;-25
2020/12/16 05:26:00;;;;;;;22.00;19.67;;;7.20;99.90;;;;;;4986061;28;20691;-26
2020/12/16 05:28:28;;;;;;;20.80;18.70;;;7.20;99.90;;;;;;4985465;28;20482;-25
2020/12/16 05:30:55;;;;;;;14.93;13.40;;;7.30;99.90;;;;;;4981630;28;20635;-25
2020/12/16 05:33:22;;;;;;;14.10;12.10;;;7.30;99.90;;;;;;4985205;28;20443;-25
2020/12/16 05:35:52;;;;;;;14.57;13.07;;;7.30;99.90;;;;;;4982793;28;20860;-24
2020/12/16 05:38:20;;;;;;;14.40;12.90;;;7.40;99.90;;;;;;4982356;28;20491;-24
2020/12/16 05:40:46;;;;;;;16.87;13.73;;;7.40;99.90;;;;;;4983342;28;20944;-25
2020/12/16 05:43:23;;;;;;;17.23;15.40;;;7.40;99.90;;;;;;4982460;28;20913;-24
2020/12/16 05:45:50;;;;;;;14.20;12.67;;;7.40;99.90;;;;;;4978453;28;20451;-24
2020/12/16 05:48:17;;;;;;;17.90;16.00;;;7.40;99.90;;;;;;4979363;28;20499;-24
2020/12/16 05:50:46;;;;;;;15.40;13.90;;;7.40;99.90;;;;;;4981294;28;20825;-24
2020/12/16 05:53:16;;;;;;;15.07;13.57;;;7.30;99.90;;;;;;4981982;28;21192;-24
2020/12/16 05:55:43;;;;;;;14.13;12.47;;;7.30;99.90;;;;;;4975872;28;20471;-24
2020/12/16 05:58:12;;;;;;;14.10;12.80;;;7.30;99.90;;;;;;4977062;28;20750;-24
2020/12/16 06:00:51;;;;;;;13.20;11.83;;;7.30;99.90;;;;;;4974689;28;20732;-24
2020/12/16 06:03:29;;;;;;;13.10;11.77;;;7.20;99.90;;;;;;4976793;28;20441;-25
2020/12/16 06:05:58;;;;;;;14.57;12.90;;;7.30;99.90;;;;;;4976688;28;20760;-25
2020/12/16 06:08:30;;;;;;;14.30;12.80;;;7.30;99.90;;;;;;4975314;28;20587;-25
2020/12/16 06:10:56;;;;;;;15.70;13.03;;;7.30;99.90;;;;;;4973221;28;20451;-24
2020/12/16 06:13:23;;;;;;;15.30;13.27;;;7.30;99.90;;;;;;4972841;28;20521;-24
2020/12/16 06:16:01;;;;;;;16.80;15.10;;;7.30;99.90;;;;;;4971090;28;20451;-25
2020/12/16 06:18:31;;;;;;;16.37;14.67;;;7.30;99.90;;;;;;4972211;28;20472;-24
2020/12/16 06:20:58;;;;;;;13.77;12.47;;;7.30;99.90;;;;;;4971299;28;20436;-24
2020/12/16 06:23:28;;;;;;;16.93;13.70;;;7.30;99.90;;;;;;4968850;28;20992;-25
2020/12/16 06:25:57;;;;;;;15.10;13.50;;;7.40;99.90;;;;;;4971483;28;20444;-24
2020/12/16 06:28:25;;;;;;;32.33;29.17;;;7.30;99.90;;;;;;4970287;28;20466;-24
2020/12/16 06:31:10;;;;;;;15.43;13.67;;;7.40;99.90;;;;;;4967464;28;20529;-24
2020/12/16 06:33:42;;;;;;;14.33;12.63;;;7.40;99.90;;;;;;4969499;28;20452;-24
2020/12/16 06:36:11;;;;;;;19.13;16.13;;;7.30;99.90;;;;;;4968055;28;20444;-24
2020/12/16 06:38:44;;;;;;;17.33;13.90;;;7.40;99.90;;;;;;4966073;28;20460;-24
2020/12/16 06:41:17;;;;;;;13.07;11.73;;;7.40;99.90;;;;;;4971552;28;20685;-24
2020/12/16 06:43:45;;;;;;;14.93;13.20;;;7.50;99.90;;;;;;4971119;28;20437;-25
2020/12/16 06:46:38;;;;;;;17.23;15.63;;;7.50;99.90;;;;;;4968547;28;21131;-25
2020/12/16 06:49:06;;;;;;;19.03;17.23;;;7.50;99.90;;;;;;4970940;28;20526;-25
2020/12/16 06:51:41;;;;;;;17.00;15.23;;;7.50;99.90;;;;;;4968676;28;20912;-25
2020/12/16 06:54:10;;;;;;;17.53;15.37;;;7.50;99.90;;;;;;4969109;28;20810;-25
2020/12/16 06:56:37;;;;;;;14.60;13.20;;;7.50;99.90;;;;;;4966753;28;20472;-25
2020/12/16 06:59:04;;;;;;;15.90;13.63;;;7.60;99.90;;;;;;4968190;28;20735;-25
2020/12/16 07:01:31;;;;;;;20.67;17.10;;;7.60;99.90;;;;;;4960726;28;20924;-25
2020/12/16 07:03:58;;;;;;;20.77;18.73;;;7.60;99.90;;;;;;4961886;28;20531;-25
2020/12/16 07:06:39;;;;;;;21.03;17.47;;;7.60;99.90;;;;;;4964898;28;20479;-25
2020/12/16 07:09:20;;;;;;;17.63;15.80;;;7.60;99.90;;;;;;4967543;28;20515;-25
2020/12/16 07:11:48;;;;;;;16.37;14.67;;;7.70;99.90;;;;;;4968929;28;20977;-25
2020/12/16 07:14:17;;;;;;;19.67;17.47;;;7.70;99.90;;;;;;4970891;28;20453;-25
2020/12/16 07:16:44;;;;;;;20.10;15.70;;;7.80;99.90;;;;;;4969709;28;20472;-25
2020/12/16 07:19:13;;;;;;;22.40;17.80;;;7.80;99.90;;;;;;4968052;28;20447;-25
2020/12/16 07:21:42;;;;;;;19.07;17.03;;;7.80;99.90;;;;;;4965816;28;20459;-25
2020/12/16 07:24:11;;;;;;;19.97;16.00;;;7.90;99.90;;;;;;4965400;28;20451;-25
2020/12/16 07:26:43;;;;;;;18.53;16.47;;;7.90;99.90;;;;;;4964192;28;20437;-25
2020/12/16 07:29:22;;;;;;;19.53;15.67;;;8.00;99.90;;;;;;4965727;28;20463;-25
2020/12/16 07:31:56;;;;;;;18.47;15.57;;;8.00;99.90;;;;;;4965910;28;20463;-25
2020/12/16 07:34:23;;;;;;;18.07;16.13;;;8.00;99.90;;;;;;4961262;28;20609;-25
2020/12/16 07:36:54;;;;;;;17.00;15.30;;;8.00;99.90;;;;;;4946824;28;20579;-25
2020/12/16 07:39:21;;;;;;;17.70;15.80;;;8.10;99.90;;;;;;4948147;28;20453;-26
2020/12/16 07:41:49;;;;;;;18.87;17.00;;;8.10;99.90;;;;;;4941165;28;20481;-25
2020/12/16 07:44:16;;;;;;;17.67;14.70;;;8.20;99.90;;;;;;4942783;28;20454;-25
2020/12/16 07:46:42;;;;;;;18.47;14.70;;;8.20;99.90;;;;;;4938657;28;20496;-25
2020/12/16 07:49:13;;;;;;;17.40;14.90;;;8.10;99.90;;;;;;4926030;28;20445;-25
2020/12/16 07:51:40;;;;;;;18.63;16.60;;;8.00;99.90;;;;;;4934738;28;20445;-25
2020/12/16 07:54:06;;;;;;;17.93;16.00;;;8.00;99.90;;;;;;4958596;28;20449;-25
2020/12/16 07:56:33;;;;;;;20.63;16.80;;;8.00;99.90;;;;;;4949686;28;20560;-25
2020/12/16 07:59:12;;;;;;;21.23;18.57;;;7.90;99.90;;;;;;4956383;28;20510;-24
2020/12/16 08:01:38;;;;;;;24.13;17.43;;;7.90;99.90;;;;;;4942646;28;20448;-24
2020/12/16 08:04:05;;;;;;;18.23;16.33;;;7.90;99.90;;;;;;4941964;28;20444;-24
2020/12/16 08:06:32;;;;;;;21.03;17.87;;;7.90;99.90;;;;;;4954498;28;20531;-24
2020/12/16 08:08:59;;;;;;;18.47;15.90;;;7.90;99.90;;;;;;4961542;28;20448;-25
2020/12/16 08:11:28;;;;;;;22.57;19.80;;;8.00;99.90;;;;;;4955938;28;20436;-25
2020/12/16 08:14:05;;;;;;;23.30;18.60;;;8.10;99.90;;;;;;4957721;28;20871;-24
2020/12/16 08:16:34;;;;;;;18.83;16.07;;;8.10;99.90;;;;;;4960411;28;20464;-25
2020/12/16 08:19:01;;;;;;;18.53;15.53;;;8.10;99.90;;;;;;4957686;28;20510;-25
2020/12/16 08:21:28;;;;;;;17.70;15.83;;;8.10;99.90;;;;;;4959711;28;20550;-24
2020/12/16 08:23:55;;;;;;;21.13;15.60;;;8.10;99.90;;;;;;4965617;28;20452;-25
2020/12/16 08:26:24;;;;;;;22.73;15.93;;;8.10;99.90;;;;;;4960624;28;20444;-24
2020/12/16 08:28:52;;;;;;;15.77;14.10;;;8.10;99.90;;;;;;4961136;28;20579;-25
2020/12/16 08:31:20;;;;;;;16.33;14.60;;;8.20;99.90;;;;;;4957904;28;21107;-24
2020/12/16 08:33:49;;;;;;;17.73;14.60;;;8.20;99.90;;;;;;4949922;28;20445;-24
2020/12/16 08:36:19;;;;;;;14.90;13.43;;;8.20;99.90;;;;;;4959724;28;20480;-25
2020/12/16 08:38:49;;;;;;;15.00;13.40;;;8.20;99.90;;;;;;4961438;28;20572;-25
2020/12/16 08:41:24;;;;;;;20.30;13.50;;;8.30;99.90;;;;;;4959243;28;20615;-24
2020/12/16 08:43:52;;;;;;;13.33;12.17;;;8.40;99.90;;;;;;4962869;28;20471;-24
2020/12/16 08:46:21;;;;;;;15.03;13.33;;;8.40;99.90;;;;;;4940158;28;20437;-24
2020/12/16 08:48:50;;;;;;;14.63;13.27;;;8.50;99.90;;;;;;4956129;28;21435;-25
2020/12/16 08:51:20;;;;;;;14.67;13.10;;;8.40;99.90;;;;;;4955089;28;20456;-25
2020/12/16 08:53:49;;;;;;;15.43;13.50;;;8.40;99.90;;;;;;4957520;28;20449;-25
2020/12/16 08:56:30;;;;;;;21.27;18.10;;;8.40;99.90;;;;;;4960195;28;20592;-24
2020/12/16 08:59:08;;;;;;;48.50;33.87;;;8.60;99.90;;;;;;4954605;28;20457;-24
2020/12/16 09:01:37;;;;;;;58.87;41.47;;;8.60;99.90;;;;;;4956729;28;20448;-25
2020/12/16 09:04:05;;;;;;;27.83;24.03;;;8.70;99.90;;;;;;4958208;28;20445;-24
2020/12/16 09:06:31;;;;;;;28.90;22.17;;;8.70;99.90;;;;;;4959465;28;20462;-25
2020/12/16 09:08:58;;;;;;;23.80;19.47;;;8.80;99.90;;;;;;4961501;28;20480;-25
2020/12/16 09:11:25;;;;;;;24.37;17.60;;;8.80;99.90;;;;;;4956918;28;20900;-25
2020/12/16 09:13:58;;;;;;;19.10;17.07;;;8.80;99.90;;;;;;4957846;28;20554;-25
2020/12/16 09:16:27;;;;;;;22.30;18.13;;;8.90;99.90;;;;;;4959226;28;20543;-24
2020/12/16 09:18:54;;;;;;;17.47;15.80;;;8.90;99.90;;;;;;4958227;28;20472;-24
2020/12/16 09:21:33;;;;;;;21.93;18.20;;;8.90;99.90;;;;;;4955648;28;20448;-24
2020/12/16 09:24:02;;;;;;;20.83;16.63;;;9.00;99.90;;;;;;4957524;28;21123;-24
2020/12/16 09:26:39;;;;;;;23.80;18.33;;;9.10;99.90;;;;;;4958847;28;20503;-24
2020/12/16 09:29:25;;;;;;;21.70;19.30;;;9.20;99.90;;;;;;4947514;28;20461;-25
2020/12/16 09:32:06;;;;;;;20.77;15.40;;;9.30;99.90;;;;;;4942810;28;20469;-25
2020/12/16 09:34:37;;;;;;;20.57;16.67;;;9.50;99.90;;;;;;4938531;28;20449;-25
2020/12/16 09:37:13;;;;;;;23.43;18.10;;;9.70;99.90;;;;;;4947017;28;20538;-25
2020/12/16 09:39:39;;;;;;;23.63;19.50;;;9.80;99.90;;;;;;4942509;28;20436;-25
2020/12/16 09:42:09;;;;;;;21.63;16.07;;;10.00;99.90;;;;;;4954778;28;20463;-24
2020/12/16 09:44:36;;;;;;;17.47;15.77;;;10.00;99.90;;;;;;4957850;28;20645;-25
2020/12/16 09:47:27;;;;;;;20.90;15.90;;;10.00;99.90;;;;;;4961963;28;20881;-25
2020/12/16 09:50:01;;;;;;;18.20;16.30;;;10.10;99.90;;;;;;4945633;28;20459;-24
2020/12/16 09:52:31;;;;;;;20.07;17.70;;;10.20;99.90;;;;;;4961035;28;20519;-25
2020/12/16 09:55:12;;;;;;;21.77;16.90;;;10.30;99.90;;;;;;4941806;28;20460;-24
2020/12/16 09:57:39;;;;;;;20.50;17.93;;;10.50;99.90;;;;;;4918003;28;20594;-24
2020/12/16 10:00:08;;;;;;;20.50;17.30;;;10.60;99.90;;;;;;4931912;28;20475;-24
2020/12/16 10:02:37;;;;;;;19.40;16.20;;;10.70;99.90;;;;;;4944858;28;20453;-24
2020/12/16 10:05:04;;;;;;;22.57;17.17;;;10.80;99.90;;;;;;4938564;28;20448;-24
2020/12/16 10:07:33;;;;;;;24.30;17.20;;;10.80;99.90;;;;;;4938394;28;20558;-24
2020/12/16 10:10:01;;;;;;;25.60;18.00;;;10.80;99.90;;;;;;4946547;28;20441;-23
2020/12/16 10:12:28;;;;;;;20.40;17.10;;;10.90;99.90;;;;;;4955091;28;20498;-25
2020/12/16 10:14:56;;;;;;;19.90;17.30;;;11.10;99.90;;;;;;4944193;28;20475;-24
2020/12/16 10:17:25;;;;;;;18.83;17.03;;;11.30;99.90;;;;;;4938679;28;20472;-23
2020/12/16 10:19:52;;;;;;;18.23;16.40;;;11.50;99.90;;;;;;4944973;28;20441;-23
2020/12/16 10:22:19;;;;;;;19.87;16.57;;;11.60;99.90;;;;;;4962834;28;20486;-25
2020/12/16 10:24:47;;;;;;;21.83;18.47;;;11.70;99.90;;;;;;4966508;28;20445;-23
2020/12/16 10:27:13;;;;;;;21.03;17.90;;;11.80;99.90;;;;;;4967182;28;20444;-25
2020/12/16 10:29:40;;;;;;;21.20;17.73;;;11.90;99.90;;;;;;4961205;28;20467;-23
2020/12/16 10:32:07;;;;;;;19.27;17.00;;;12.10;99.90;;;;;;4941959;28;20921;-24
2020/12/16 10:34:54;;;;;;;25.53;18.33;;;12.00;99.90;;;;;;4959038;28;20440;-27
2020/12/16 10:37:25;;;;;;;20.87;18.13;;;12.00;99.90;;;;;;4952652;28;20476;-25
2020/12/16 10:39:54;;;;;;;22.67;17.93;;;12.00;99.90;;;;;;4967410;28;20603;-25
2020/12/16 10:42:22;;;;;;;21.47;19.13;;;12.00;99.90;;;;;;4969536;28;20696;-25
2020/12/16 10:44:49;;;;;;;21.87;18.57;;;11.90;99.90;;;;;;4967579;28;20482;-25
2020/12/16 10:47:20;;;;;;;21.03;18.80;;;11.80;99.90;;;;;;4966051;28;20452;-25
2020/12/16 10:49:49;;;;;;;20.60;18.53;;;11.70;99.90;;;;;;4967224;28;20944;-24
2020/12/16 10:52:18;;;;;;;19.23;17.20;;;11.70;99.90;;;;;;4963963;28;20444;-25
2020/12/16 10:54:46;;;;;;;21.00;18.57;;;11.80;99.90;;;;;;4960924;28;20517;-25
2020/12/16 10:57:13;;;;;;;22.03;19.00;;;11.80;99.90;;;;;;4943550;28;20461;-25
2020/12/16 10:59:40;;;;;;;24.80;20.90;;;11.80;99.90;;;;;;4956373;28;21319;-25
2020/12/16 11:02:09;;;;;;;23.47;20.30;;;11.90;99.90;;;;;;4945916;28;20449;-25
2020/12/16 11:04:37;;;;;;;17.60;15.90;;;11.90;99.90;;;;;;4957493;28;20499;-25
2020/12/16 11:07:04;;;;;;;21.03;18.80;;;11.90;99.90;;;;;;4965971;28;20949;-25
2020/12/16 11:09:30;;;;;;;16.50;14.87;;;12.00;99.90;;;;;;4421181;28;15295940;-25
2020/12/16 11:11:57;;;;;;;17.80;15.80;;;12.00;99.90;;;;;;4957987;28;20465;-25
2020/12/16 11:14:25;;;;;;;22.30;16.97;;;12.10;99.90;;;;;;4970169;28;20475;-24
2020/12/16 11:16:54;;;;;;;16.93;14.20;;;12.30;99.90;;;;;;4969943;28;20486;-24
2020/12/16 11:19:22;;;;;;;17.60;15.80;;;12.40;99.90;;;;;;4971601;28;20933;-24
2020/12/16 11:21:51;;;;;;;16.67;15.00;;;12.50;99.90;;;;;;4969094;28;20436;-24
2020/12/16 11:24:20;;;;;;;17.33;15.50;;;12.60;99.90;;;;;;4970092;28;20451;-25
2020/12/16 11:26:49;;;;;;;15.27;13.33;;;12.80;99.90;;;;;;4967949;28;20518;-24
2020/12/16 11:29:17;;;;;;;15.30;13.80;;;12.90;99.90;;;;;;4963521;28;20468;-25
2020/12/16 11:31:45;;;;;;;18.40;16.20;;;13.00;99.90;;;;;;4966177;28;20464;-25
2020/12/16 11:34:12;;;;;;;16.40;13.10;;;13.20;99.90;;;;;;4964855;28;20818;-25
2020/12/16 11:36:41;;;;;;;15.27;13.67;;;13.30;99.90;;;;;;4966662;28;20471;-25
2020/12/16 11:39:09;;;;;;;16.57;13.17;;;13.50;99.90;;;;;;4962419;28;20480;-25
2020/12/16 11:41:37;;;;;;;16.03;13.80;;;13.60;99.90;;;;;;4967284;28;20462;-25
2020/12/16 11:44:04;;;;;;;14.90;13.37;;;13.70;99.90;;;;;;4969605;28;21170;-25
2020/12/16 11:46:31;;;;;;;13.83;12.40;;;13.70;99.90;;;;;;4969011;28;20535;-25
2020/12/16 11:48:58;;;;;;;17.63;14.80;;;13.70;99.90;;;;;;4966787;28;21039;-25
2020/12/16 11:51:27;;;;;;;15.20;13.73;;;13.60;99.90;;;;;;4967449;28;20471;-25
2020/12/16 11:53:55;;;;;;;14.60;12.93;;;13.50;99.90;;;;;;4964771;28;20842;-25
2020/12/16 11:56:22;;;;;;;14.13;12.63;;;13.40;99.90;;;;;;4964324;28;20459;-25
2020/12/16 11:58:48;;;;;;;15.00;13.30;;;13.40;99.90;;;;;;4965803;28;20468;-25
2020/12/16 12:01:16;;;;;;;15.53;13.80;;;13.30;99.90;;;;;;4964031;28;20910;-25
2020/12/16 12:03:43;;;;;;;13.13;11.87;;;13.30;99.90;;;;;;4966787;28;21111;-25
2020/12/16 12:06:10;;;;;;;15.23;13.63;;;13.30;99.90;;;;;;4967005;28;20441;-25
2020/12/16 12:08:37;;;;;;;13.53;12.13;;;13.30;99.90;;;;;;4964173;28;20445;-25
2020/12/16 12:11:05;;;;;;;14.97;13.47;;;13.30;99.90;;;;;;4965031;28;20547;-25
2020/12/16 12:13:32;;;;;;;11.67;10.60;;;13.40;99.90;;;;;;4965557;28;20466;-25
2020/12/16 12:15:59;;;;;;;12.77;11.57;;;13.30;99.90;;;;;;4965721;28;20471;-25
2020/12/16 12:18:27;;;;;;;14.60;11.70;;;13.40;99.90;;;;;;4967620;28;20464;-25
2020/12/16 12:20:54;;;;;;;10.67;9.57;;;13.40;99.90;;;;;;4964054;28;20450;-25
2020/12/16 12:23:21;;;;;;;11.77;10.53;;;13.40;99.90;;;;;;4960313;28;20444;-25
2020/12/16 12:25:48;;;;;;;16.80;9.17;;;13.50;99.90;;;;;;4959416;28;21273;-25
2020/12/16 12:28:15;;;;;;;10.33;9.00;;;13.60;99.90;;;;;;4962221;28;20448;-25
2020/12/16 12:30:42;;;;;;;9.47;8.57;;;13.60;99.90;;;;;;4954597;28;20439;-25
2020/12/16 12:33:09;;;;;;;10.03;9.03;;;13.60;99.90;;;;;;4953295;28;20722;-24
2020/12/16 12:35:35;;;;;;;10.57;9.47;;;13.70;99.90;;;;;;4957530;28;20674;-25
2020/12/16 12:38:03;;;;;;;12.50;10.97;;;13.70;99.90;;;;;;4958504;28;20796;-24
2020/12/16 12:40:29;;;;;;;10.83;9.10;;;13.70;99.90;;;;;;4943231;28;20611;-25
2020/12/16 12:42:56;;;;;;;11.47;10.37;;;13.60;99.90;;;;;;4964661;28;20787;-25
2020/12/16 12:45:23;;;;;;;11.50;10.30;;;13.70;99.90;;;;;;4959827;28;20688;-25
2020/12/16 12:47:51;;;;;;;11.87;10.80;;;13.60;99.90;;;;;;4963323;28;20700;-25
2020/12/16 12:50:17;;;;;;;10.43;9.43;;;13.70;99.90;;;;;;4963780;28;20746;-25